Terminal Aerodrome Forecast
Issued by NWS Pocatello, ID

Home | Current Version | Previous Version | Text Only | Print | Product List | Glossary On
Versions: 1 2 3 4 5 6 7 8 9 10 11 12 13 14 15 16 17 18 19 20 21 22 23 24
216
FTUS45 KPIH 180535
TAFBYI
TAF
KBYI 180535Z 1806/1906 04010KT P6SM BKN200
     FM181400 07010KT P6SM BKN130
     FM182200 09008KT P6SM VCSH SCT020 BKN040 OVC070
     FM190000 10006KT 6SM -RASN SCT012 BKN020 OVC035=

USA.gov is the U.S. government's official web portal to all federal, state and local government web resources and services.